Time;durP1;ratioP1;P1;durP2;ratioP2;P2;SDS_P1;SDS_P2;PMS_P1;PMS_P2;Temp;Humidity;BMP_temperature;BMP_pressure;BME280_temperature;BME280_humidity;BME280_pressure;Samples;Min_cycle;Max_cycle;Signal;HPM_P1;HPM_P2
2023/05/05 04:22:33;;;;;;;6.32;3.20;;;;;;;14.56;97.70;100288.97;5089546;28;20336;-70
2023/05/05 04:25:00;;;;;;;3.55;2.78;;;;;;;14.71;96.66;100302.22;5088154;28;20481;-70
2023/05/05 04:27:28;;;;;;;6.70;3.20;;;;;;;14.82;95.94;100307.84;5087577;28;20036;-72
2023/05/05 04:29:55;;;;;;;3.50;2.45;;;;;;;14.90;95.25;100310.34;5087870;28;20036;-70
2023/05/05 04:32:21;;;;;;;4.10;2.60;;;;;;;15.02;94.68;100307.94;5088006;28;20028;-71
2023/05/05 04:34:47;;;;;;;4.35;2.60;;;;;;;15.11;94.14;100305.91;5088031;28;20412;-71
2023/05/05 04:37:13;;;;;;;3.38;2.47;;;;;;;15.18;93.73;100304.06;5087609;28;20033;-72
2023/05/05 04:39:38;;;;;;;4.47;2.45;;;;;;;15.19;93.79;100305.72;5087884;28;20515;-70
2023/05/05 04:42:04;;;;;;;7.53;2.88;;;;;;;15.26;93.83;100309.28;5087903;28;20037;-69
2023/05/05 04:44:30;;;;;;;3.30;2.45;;;;;;;15.33;93.11;100303.91;5087677;28;20062;-69
2023/05/05 04:46:56;;;;;;;4.40;2.78;;;;;;;15.39;92.55;100309.31;5070664;28;20039;-71
2023/05/05 04:49:22;;;;;;;3.92;2.88;;;;;;;15.44;92.16;100314.03;5089335;28;20126;-69
2023/05/05 04:51:48;;;;;;;4.10;2.72;;;;;;;15.49;92.19;100314.25;5088395;28;20108;-69
2023/05/05 04:54:13;;;;;;;3.50;2.70;;;;;;;15.51;92.05;100314.88;5088816;28;20423;-70
2023/05/05 04:56:39;;;;;;;3.47;2.70;;;;;;;15.56;91.80;100311.59;5088798;28;20550;-71
2023/05/05 04:59:05;;;;;;;3.22;2.40;;;;;;;15.58;91.47;100321.06;5086364;28;20684;-70
2023/05/05 05:01:30;;;;;;;3.25;2.28;;;;;;;15.61;91.34;100311.81;5087237;28;20575;-70
2023/05/05 05:03:55;;;;;;;3.72;2.58;;;;;;;15.63;91.79;100315.13;5087505;28;20432;-70
2023/05/05 05:06:21;;;;;;;4.25;2.75;;;;;;;15.60;91.59;100308.31;5088611;28;20109;-69
2023/05/05 05:08:46;;;;;;;4.50;2.90;;;;;;;15.67;91.38;100325.28;5087161;28;20039;-70
2023/05/05 05:11:12;;;;;;;5.75;3.10;;;;;;;15.74;91.16;100331.47;5087529;28;20489;-65
2023/05/05 05:13:38;;;;;;;4.13;2.80;;;;;;;15.83;90.36;100321.34;5087265;28;20040;-66
2023/05/05 05:16:05;;;;;;;4.70;3.10;;;;;;;15.91;90.36;100331.06;5088854;28;20036;-66
2023/05/05 05:18:30;;;;;;;3.38;2.67;;;;;;;15.98;90.29;100324.69;5086841;28;20567;-65
2023/05/05 05:20:56;;;;;;;3.70;2.42;;;;;;;16.08;90.39;100334.19;5088250;28;20112;-65
2023/05/05 05:23:21;;;;;;;4.28;2.80;;;;;;;16.15;89.85;100335.00;5088359;28;20043;-66
2023/05/05 05:25:47;;;;;;;4.40;2.83;;;;;;;16.22;89.87;100335.81;5086992;28;20067;-66
2023/05/05 05:28:14;;;;;;;;;;;;;;;16.27;89.31;100327.97;5086986;28;20043;-66
2023/05/05 05:30:48;;;;;;;3.17;2.60;;;;;;;16.36;88.45;100339.31;5086977;28;19951;-65
2023/05/05 05:33:13;;;;;;;5.15;2.60;;;;;;;16.42;88.52;100336.63;5079103;28;20059;-66
2023/05/05 05:35:39;;;;;;;3.45;2.55;;;;;;;16.45;89.00;100343.47;5073332;28;20032;-66
2023/05/05 05:38:05;;;;;;;4.75;2.72;;;;;;;16.55;88.19;100343.84;5073094;28;20412;-66
2023/05/05 05:40:31;;;;;;;2.72;2.03;;;;;;;16.60;88.33;100340.53;5073211;28;20489;-65
2023/05/05 05:42:56;;;;;;;4.22;3.15;;;;;;;16.64;87.90;100337.22;5074467;28;20037;-65
2023/05/05 05:45:23;;;;;;;4.13;2.90;;;;;;;16.71;88.26;100342.63;5073178;28;20033;-67
2023/05/05 05:47:49;;;;;;;3.90;2.45;;;;;;;16.75;87.74;100346.53;5072803;28;20462;-66
2023/05/05 05:50:14;;;;;;;4.45;2.13;;;;;;;16.74;88.01;100337.63;5074286;28;20382;-67
2023/05/05 05:52:40;;;;;;;3.45;2.30;;;;;;;16.81;88.17;100346.50;5072977;28;20032;-67
2023/05/05 05:55:06;;;;;;;5.28;2.58;;;;;;;16.86;87.24;100351.25;5072767;28;20041;-66
2023/05/05 05:57:32;;;;;;;3.28;2.50;;;;;;;16.93;86.79;100354.75;5072658;28;20047;-65
2023/05/05 05:59:58;;;;;;;4.35;2.17;;;;;;;16.96;86.79;100359.72;5072903;28;20033;-66
2023/05/05 06:02:26;;;;;;;3.08;2.10;;;;;;;16.98;87.06;100362.19;5072794;28;20039;-65
2023/05/05 06:04:51;;;;;;;4.57;2.25;;;;;;;17.03;86.42;100362.38;5072812;28;20036;-66
2023/05/05 06:07:17;;;;;;;3.20;2.25;;;;;;;17.15;85.84;100365.22;5072245;28;20036;-65
2023/05/05 06:09:44;;;;;;;2.33;1.88;;;;;;;17.15;87.05;100357.16;5072648;28;20040;-66
2023/05/05 06:12:09;;;;;;;2.70;2.08;;;;;;;17.18;85.86;100367.50;5072728;28;20039;-64
2023/05/05 06:14:35;;;;;;;2.55;2.08;;;;;;;17.21;86.29;100367.88;5073948;28;20040;-66
2023/05/05 06:17:00;;;;;;;2.55;1.65;;;;;;;17.26;86.12;100368.06;5072450;28;20043;-66
2023/05/05 06:19:28;;;;;;;3.03;1.90;;;;;;;17.36;85.78;100367.63;5072652;28;20060;-66
2023/05/05 06:21:53;;;;;;;2.95;2.15;;;;;;;17.44;85.08;100363.84;5072394;28;20079;-66
2023/05/05 06:24:19;;;;;;;3.60;1.98;;;;;;;17.55;84.52;100373.97;5072591;28;20035;-65
2023/05/05 06:26:45;;;;;;;3.05;2.20;;;;;;;17.64;85.04;100365.41;5072298;28;20041;-66
2023/05/05 06:29:10;;;;;;;2.53;2.08;;;;;;;17.73;83.46;100365.97;5072076;28;20558;-68
2023/05/05 06:31:36;;;;;;;2.45;2.03;;;;;;;17.83;83.81;100365.53;5072398;28;20123;-65
2023/05/05 06:34:01;;;;;;;3.15;2.20;;;;;;;17.90;84.17;100367.13;5073687;28;20123;-66
2023/05/05 06:36:27;;;;;;;3.55;2.17;;;;;;;18.01;83.59;100367.47;5073534;28;20067;-65
2023/05/05 06:38:52;;;;;;;4.50;2.40;;;;;;;18.07;82.39;100374.69;5073209;28;20086;-66
2023/05/05 06:41:17;;;;;;;3.60;1.83;;;;;;;18.16;82.37;100368.78;5073340;28;20032;-65
2023/05/05 06:43:43;;;;;;;3.63;1.98;;;;;;;18.25;82.97;100379.28;5072719;28;20045;-66
2023/05/05 06:46:11;;;;;;;2.47;1.90;;;;;;;18.30;79.91;100372.19;5071699;28;20048;-66
2023/05/05 06:48:37;;;;;;;3.47;2.42;;;;;;;18.44;79.64;100378.28;5072901;28;20034;-66
2023/05/05 06:51:02;;;;;;;2.42;2.15;;;;;;;18.53;81.65;100385.06;5072950;28;20405;-66
2023/05/05 06:53:28;;;;;;;6.20;2.75;;;;;;;18.67;80.52;100377.72;5073004;28;20037;-66
2023/05/05 06:55:53;;;;;;;4.50;2.30;;;;;;;18.73;78.34;100378.69;5072983;28;20046;-66
2023/05/05 06:58:19;;;;;;;2.83;2.08;;;;;;;18.91;79.17;100379.53;5072588;28;20482;-66
2023/05/05 07:00:45;;;;;;;4.78;2.05;;;;;;;19.02;79.14;100380.63;5072899;28;20037;-66
2023/05/05 07:03:10;;;;;;;2.83;1.50;;;;;;;19.13;76.70;100387.16;5072859;28;20527;-55
2023/05/05 07:05:36;;;;;;;2.63;1.70;;;;;;;19.25;75.62;100382.66;5071544;28;20081;-56
2023/05/05 07:08:01;;;;;;;2.72;1.40;;;;;;;19.38;72.63;100378.97;5072528;28;20409;-53
2023/05/05 07:10:27;;;;;;;2.28;1.38;;;;;;;19.48;73.64;100382.75;5072613;28;20545;-53
2023/05/05 07:12:53;;;;;;;2.42;1.73;;;;;;;19.58;74.51;100373.34;5072726;28;20107;-55
2023/05/05 07:15:20;;;;;;;2.28;1.65;;;;;;;19.62;72.46;100378.03;5072692;28;20087;-57
2023/05/05 07:17:45;;;;;;;3.43;2.10;;;;;;;19.71;70.90;100383.94;5072426;28;20021;-55
2023/05/05 07:20:11;;;;;;;2.17;1.85;;;;;;;19.71;70.26;100378.53;5072330;28;20439;-57
2023/05/05 07:22:37;;;;;;;2.17;1.52;;;;;;;19.74;73.08;100389.69;5072565;28;20034;-56
2023/05/05 07:25:03;;;;;;;3.25;1.65;;;;;;;19.81;70.38;100389.59;5072590;28;20037;-52
2023/05/05 07:27:30;;;;;;;2.15;1.50;;;;;;;19.67;69.53;100383.56;5072129;28;20115;-53
2023/05/05 07:29:55;;;;;;;3.05;1.73;;;;;;;19.78;69.85;100388.19;5072512;28;20051;-57
2023/05/05 07:32:21;;;;;;;3.35;1.83;;;;;;;19.69;69.72;100383.34;5072309;28;20040;-53
2023/05/05 07:34:46;;;;;;;2.70;1.40;;;;;;;19.71;69.26;100389.34;5072329;28;20044;-53
2023/05/05 07:37:11;;;;;;;2.70;1.63;;;;;;;19.62;71.29;100382.59;5071899;28;20044;-56
2023/05/05 07:39:37;;;;;;;1.80;1.60;;;;;;;19.71;70.01;100382.06;5072266;28;20112;-52
2023/05/05 07:42:02;;;;;;;3.22;1.70;;;;;;;19.67;69.68;100378.16;5072233;28;20458;-54
2023/05/05 07:44:28;;;;;;;3.08;1.50;;;;;;;19.60;69.69;100372.03;5072178;28;20536;-55
2023/05/05 07:46:53;;;;;;;2.97;1.58;;;;;;;19.62;69.20;100380.72;5072005;28;20045;-53
2023/05/05 07:49:19;;;;;;;2.42;1.40;;;;;;;19.55;69.69;100377.25;5071952;28;20037;-56
2023/05/05 07:51:45;;;;;;;2.72;1.55;;;;;;;19.53;69.36;100382.91;5071949;28;20090;-56
2023/05/05 07:54:11;;;;;;;2.85;1.60;;;;;;;19.49;69.27;100378.19;5072132;28;20443;-55
2023/05/05 07:56:36;;;;;;;1.70;1.45;;;;;;;19.57;69.18;100374.34;5071539;28;20081;-56
2023/05/05 07:59:02;;;;;;;1.98;1.60;;;;;;;19.62;71.27;100378.03;5071806;28;20036;-54
2023/05/05 08:01:27;;;;;;;2.97;1.50;;;;;;;19.62;67.37;100380.72;5071973;28;20163;-56
2023/05/05 08:03:52;;;;;;;2.05;1.70;;;;;;;19.72;67.39;100378.31;5070741;28;20080;-52
2023/05/05 08:06:20;;;;;;;2.08;1.60;;;;;;;19.89;66.85;100383.06;5071912;28;20032;-53
2023/05/05 08:08:50;;;;;;;1.92;1.30;;;;;;;19.97;67.05;100380.84;5071510;28;20046;-52
2023/05/05 08:11:15;;;;;;;1.58;1.33;;;;;;;20.07;66.91;100377.56;5071799;28;20486;-55
2023/05/05 08:13:41;;;;;;;2.13;1.60;;;;;;;20.17;64.38;100369.72;5071889;28;20036;-56
2023/05/05 08:16:07;;;;;;;3.47;1.42;;;;;;;20.26;65.83;100371.00;5071769;28;20051;-54
2023/05/05 08:18:36;;;;;;;2.70;1.30;;;;;;;20.39;65.48;100372.66;5071590;28;20447;-55
2023/05/05 08:21:03;;;;;;;3.85;1.60;;;;;;;20.43;64.15;100370.34;5071608;28;20557;-52
2023/05/05 08:23:28;;;;;;;2.93;1.50;;;;;;;20.49;64.98;100364.00;5071789;28;20049;-55
2023/05/05 08:25:53;;;;;;;2.13;1.45;;;;;;;20.56;66.33;100364.72;5071545;28;20087;-53
2023/05/05 08:28:19;;;;;;;2.50;1.45;;;;;;;20.54;66.02;100367.66;5071500;28;20076;-56
2023/05/05 08:30:45;;;;;;;1.20;1.10;;;;;;;20.63;66.45;100370.81;5071663;28;20040;-57
2023/05/05 08:33:10;;;;;;;1.73;1.40;;;;;;;20.75;65.29;100360.00;5071768;28;20039;-55
2023/05/05 08:35:35;;;;;;;2.80;1.48;;;;;;;20.88;66.06;100353.50;5071603;28;20036;-56
2023/05/05 08:38:01;;;;;;;1.63;1.13;;;;;;;20.93;65.83;100357.16;5070020;28;20485;-57
2023/05/05 08:40:33;;;;;;;2.03;1.33;;;;;;;21.05;63.98;100357.91;5071632;28;20044;-53
2023/05/05 08:42:59;;;;;;;3.35;1.60;;;;;;;21.09;61.61;100359.09;5071656;28;20040;-54
2023/05/05 08:45:26;;;;;;;3.65;1.40;;;;;;;21.12;61.10;100357.78;5071533;28;20068;-55
2023/05/05 08:47:52;;;;;;;1.77;1.35;;;;;;;21.20;62.19;100362.03;5066984;28;20090;-55
2023/05/05 08:50:18;;;;;;;1.90;1.27;;;;;;;21.23;63.08;100365.06;5060273;28;20032;-55
2023/05/05 08:52:46;;;;;;;2.53;1.20;;;;;;;21.28;64.01;100364.34;5059951;28;20044;-53
2023/05/05 08:55:16;;;;;;;1.70;1.20;;;;;;;21.34;61.76;100358.00;5059520;28;20636;-56
2023/05/05 08:57:50;;;;;;;2.05;1.30;;;;;;;21.26;60.46;100361.88;5058896;28;20060;-56
2023/05/05 09:00:18;;;;;;;1.52;1.20;;;;;;;21.31;60.73;100364.72;5060101;28;20040;-54
2023/05/05 09:02:45;;;;;;;2.00;1.30;;;;;;;21.20;60.55;100370.97;5058890;28;20028;-53
2023/05/05 09:05:10;;;;;;;1.40;1.30;;;;;;;21.00;59.74;100362.44;5060701;28;20072;-55
2023/05/05 09:07:37;;;;;;;1.30;1.20;;;;;;;21.00;60.34;100367.84;5060744;28;20072;-57
2023/05/05 09:10:04;;;;;;;1.80;1.20;;;;;;;21.00;60.77;100365.13;5062814;28;20098;-55
2023/05/05 09:12:30;;;;;;;1.83;1.35;;;;;;;20.92;61.11;100370.91;5062852;28;20044;-54
2023/05/05 09:14:56;;;;;;;1.42;1.25;;;;;;;20.85;60.68;100366.44;5063622;28;20032;-54
2023/05/05 09:17:25;;;;;;;2.35;1.35;;;;;;;20.75;61.21;100374.34;5064093;28;20090;-57
2023/05/05 09:20:01;;;;;;;1.63;1.20;;;;;;;20.78;61.25;100362.22;5063027;28;20033;-56
2023/05/05 09:22:34;;;;;;;1.55;1.40;;;;;;;20.80;62.03;100355.53;5062470;28;20040;-54
2023/05/05 09:24:59;;;;;;;1.38;1.20;;;;;;;20.86;61.98;100357.28;5063142;28;20389;-53
2023/05/05 09:27:25;;;;;;;2.65;1.27;;;;;;;20.99;62.39;100350.75;5064202;28;20085;-56
2023/05/05 09:29:51;;;;;;;2.10;1.30;;;;;;;21.02;61.80;100355.72;5061328;28;20041;-55
2023/05/05 09:32:17;;;;;;;1.50;1.33;;;;;;;21.27;61.19;100357.28;5063200;28;20085;-57
2023/05/05 09:34:42;;;;;;;1.38;1.23;;;;;;;21.29;60.92;100355.19;5057110;28;20037;-57
2023/05/05 09:37:08;;;;;;;1.60;1.30;;;;;;;21.39;60.49;100358.09;5054249;28;20028;-55
2023/05/05 09:39:33;;;;;;;2.35;1.30;;;;;;;21.52;61.83;100363.22;5054596;28;20047;-55
2023/05/05 09:41:59;;;;;;;1.55;1.17;;;;;;;21.63;64.64;100356.09;5053604;28;20048;-57
2023/05/05 09:44:37;;;;;;;2.38;1.30;;;;;;;21.65;57.89;100349.38;5054499;28;20556;-52
2023/05/05 09:47:02;;;;;;;1.80;1.10;;;;;;;21.73;57.91;100348.16;5054162;28;20060;-54
2023/05/05 09:49:29;;;;;;;2.55;1.30;;;;;;;21.80;58.82;100342.59;5054405;28;20486;-55
2023/05/05 09:51:56;;;;;;;2.03;1.15;;;;;;;21.68;57.26;100351.59;5059359;28;20725;-55
2023/05/05 09:54:26;;;;;;;2.47;1.27;;;;;;;21.59;56.99;100346.81;5074305;28;20119;-58
2023/05/05 09:56:53;;;;;;;1.88;1.17;;;;;;;21.56;58.67;100342.69;5074133;28;20040;-57
2023/05/05 09:59:19;;;;;;;1.92;1.25;;;;;;;21.45;56.53;100348.16;5074046;28;20477;-57
2023/05/05 10:01:44;;;;;;;2.08;1.40;;;;;;;21.34;57.25;100348.00;5074265;28;20477;-57
2023/05/05 10:04:26;;;;;;;3.60;1.30;;;;;;;21.48;57.60;100344.97;5074238;28;20045;-56
2023/05/05 10:06:53;;;;;;;1.48;1.15;;;;;;;21.52;57.83;100352.41;5070456;28;20032;-56
2023/05/05 10:09:19;;;;;;;2.25;1.42;;;;;;;21.66;56.56;100350.19;5073803;28;20046;-54
2023/05/05 10:11:46;;;;;;;1.27;1.08;;;;;;;21.50;57.40;100353.69;5073807;28;20036;-55
2023/05/05 10:14:16;;;;;;;2.90;1.58;;;;;;;21.65;59.57;100343.16;5073996;28;20052;-57
2023/05/05 10:16:50;;;;;;;1.67;1.17;;;;;;;21.94;58.85;100346.63;5073892;28;20398;-58
2023/05/05 10:19:21;;;;;;;1.60;1.20;;;;;;;21.98;56.94;100341.53;5073665;28;20044;-58
2023/05/05 10:21:51;;;;;;;2.05;1.00;;;;;;;21.99;56.13;100343.19;5073645;28;20058;-56
2023/05/05 10:24:37;;;;;;;1.63;1.00;;;;;;;22.15;57.06;100340.47;5073814;28;20039;-58
2023/05/05 10:27:09;;;;;;;3.00;1.20;;;;;;;22.18;56.54;100344.59;5072955;28;20044;-54
2023/05/05 10:29:53;;;;;;;1.55;1.20;;;;;;;22.33;55.16;100336.69;5064603;28;20541;-56
2023/05/05 10:32:56;;;;;;;1.10;1.00;;;;;;;22.22;54.83;100332.19;5053484;28;20064;-57
2023/05/05 10:35:23;;;;;;;0.90;0.90;;;;;;;22.52;53.81;100336.44;5053002;28;20049;-57
2023/05/05 10:37:49;;;;;;;2.08;1.00;;;;;;;22.64;52.34;100326.28;5053234;28;20124;-57
2023/05/05 10:40:16;;;;;;;1.00;0.90;;;;;;;22.78;51.29;100335.69;5053359;28;20114;-59
2023/05/05 10:42:42;;;;;;;2.42;1.20;;;;;;;22.95;51.97;100325.66;5053441;28;20056;-56
2023/05/05 10:45:08;;;;;;;1.02;0.90;;;;;;;22.95;51.54;100325.66;5058177;28;20036;-56
2023/05/05 10:47:35;;;;;;;1.75;1.20;;;;;;;23.07;51.98;100330.09;5070714;28;20120;-57
2023/05/05 10:50:15;;;;;;;2.13;1.65;;;;;;;22.66;52.56;100319.53;5073131;28;20131;-58
2023/05/05 10:52:59;;;;;;;2.03;1.10;;;;;;;22.87;53.07;100317.09;5073173;28;20502;-58
2023/05/05 10:55:48;;;;;;;2.00;1.10;;;;;;;22.77;53.42;100314.25;5069640;28;20594;-57
2023/05/05 10:58:34;;;;;;;2.05;1.00;;;;;;;22.68;51.88;100308.41;5063777;28;20029;-57
2023/05/05 11:00:59;;;;;;;1.10;0.88;;;;;;;22.63;52.12;100300.22;5053089;28;20029;-56
2023/05/05 11:03:25;;;;;;;1.50;1.10;;;;;;;22.69;52.34;100312.75;5053119;28;20455;-56
2023/05/05 11:06:03;;;;;;;1.17;1.00;;;;;;;22.85;52.22;100300.22;5052959;28;20048;-58
2023/05/05 11:08:32;;;;;;;2.10;1.30;;;;;;;22.56;52.34;100299.56;5052703;28;20055;-57
2023/05/05 11:10:58;;;;;;;1.17;0.93;;;;;;;22.61;52.85;100291.47;5052840;28;20452;-56
2023/05/05 11:13:24;;;;;;;1.92;0.90;;;;;;;22.85;52.44;100290.19;5052902;28;20103;-55
2023/05/05 11:15:54;;;;;;;1.17;1.00;;;;;;;22.98;52.41;100289.00;5052716;28;20043;-56
2023/05/05 11:18:36;;;;;;;0.85;0.80;;;;;;;23.19;52.41;100290.03;5052305;28;20505;-57
2023/05/05 11:21:14;;;;;;;1.20;1.10;;;;;;;23.29;50.65;100282.00;5052587;28;20033;-57
2023/05/05 11:23:44;;;;;;;1.88;1.10;;;;;;;23.36;49.99;100273.66;5052673;28;20089;-55
2023/05/05 11:26:11;;;;;;;1.35;1.25;;;;;;;23.40;50.74;100275.56;5052563;28;20529;-57
2023/05/05 11:28:58;;;;;;;1.67;1.10;;;;;;;23.59;50.36;100273.31;5052330;28;20041;-58
2023/05/05 11:31:23;;;;;;;1.55;1.05;;;;;;;24.06;49.86;100267.19;5052036;28;20043;-58
2023/05/05 11:33:49;;;;;;;2.05;1.30;;;;;;;24.77;47.52;100261.34;5052540;28;20116;-59
2023/05/05 11:36:16;;;;;;;2.00;1.00;;;;;;;25.24;46.71;100254.97;5052291;28;20056;-59
2023/05/05 11:38:57;;;;;;;1.60;1.27;;;;;;;26.04;44.90;100253.38;5052187;28;20036;-58
2023/05/05 11:41:40;;;;;;;1.42;1.30;;;;;;;25.80;43.11;100261.31;5052438;28;20037;-58
2023/05/05 11:44:18;;;;;;;1.17;0.90;;;;;;;25.76;43.65;100256.69;5052539;28;20061;-58
2023/05/05 11:46:49;;;;;;;1.55;1.17;;;;;;;25.96;42.94;100243.84;5052238;28;20190;-57
2023/05/05 11:49:25;;;;;;;1.30;1.10;;;;;;;25.66;43.21;100255.53;5052135;28;20032;-58
2023/05/05 11:52:04;;;;;;;1.25;1.02;;;;;;;24.62;44.84;100249.28;5052110;28;20065;-57
2023/05/05 11:54:31;;;;;;;1.15;1.05;;;;;;;25.35;43.92;100246.53;5051131;28;20128;-62
2023/05/05 11:56:58;;;;;;;1.37;1.10;;;;;;;25.73;44.84;100249.03;5052147;28;20441;-63
2023/05/05 11:59:24;;;;;;;1.55;0.98;;;;;;;25.61;43.96;100230.19;5052141;28;20025;-62
2023/05/05 12:01:50;;;;;;;1.13;0.98;;;;;;;25.75;45.16;100244.13;5051934;28;20079;-62
2023/05/05 12:04:16;;;;;;;2.92;1.00;;;;;;;26.10;44.26;100232.34;5051953;28;20545;-61
2023/05/05 12:06:43;;;;;;;1.20;0.98;;;;;;;25.90;45.01;100234.03;5052008;28;20041;-62
2023/05/05 12:09:20;;;;;;;1.02;0.93;;;;;;;26.00;45.96;100230.44;5051730;28;20119;-63
2023/05/05 12:11:55;;;;;;;1.38;0.93;;;;;;;25.66;43.27;100230.19;5051977;28;20098;-60
2023/05/05 12:14:23;;;;;;;1.20;1.10;;;;;;;25.06;43.43;100227.13;5051804;28;20086;-62
2023/05/05 12:17:01;;;;;;;;;;;;;;;25.35;44.88;100223.91;5052166;28;20474;-63
2023/05/05 12:19:29;;;;;;;3.35;1.15;;;;;;;25.60;45.48;100214.91;5051694;28;20254;-62
2023/05/05 12:21:55;;;;;;;1.45;0.90;;;;;;;25.48;44.92;100220.63;5051777;28;20128;-62
2023/05/05 12:24:21;;;;;;;0.88;0.88;;;;;;;26.18;44.47;100218.94;5051732;28;20401;-62
2023/05/05 12:26:47;;;;;;;1.65;1.23;;;;;;;25.87;42.78;100210.00;5051694;28;20040;-63
2023/05/05 12:29:22;;;;;;;1.52;0.90;;;;;;;25.85;44.19;100212.19;5050337;28;20047;-63
2023/05/05 12:31:47;;;;;;;1.13;0.93;;;;;;;25.63;42.10;100214.38;5051737;28;20059;-63
2023/05/05 12:34:13;;;;;;;1.63;0.82;;;;;;;25.52;42.60;100208.09;5051721;28;20525;-61
2023/05/05 12:36:38;;;;;;;1.60;0.80;;;;;;;26.51;40.83;100200.31;5051651;28;20037;-63
2023/05/05 12:39:04;;;;;;;1.17;0.90;;;;;;;27.41;40.91;100199.22;5061743;28;20041;-62
2023/05/05 12:41:30;;;;;;;0.80;0.70;;;;;;;27.87;40.15;100196.09;5071665;28;20036;-63
2023/05/05 12:43:58;;;;;;;1.08;0.70;;;;;;;27.65;38.00;100188.34;5074786;28;20469;-63
2023/05/05 12:46:25;;;;;;;0.88;0.88;;;;;;;27.41;39.51;100193.75;5075637;28;20547;-62
2023/05/05 12:49:04;;;;;;;1.85;0.80;;;;;;;27.39;38.18;100185.03;5075273;28;20443;-62
2023/05/05 12:51:31;;;;;;;1.30;0.73;;;;;;;26.74;39.42;100185.19;5075506;28;20093;-63
2023/05/05 12:54:10;;;;;;;0.75;0.65;;;;;;;26.92;38.88;100184.50;5075386;28;20056;-62
2023/05/05 12:56:46;;;;;;;1.58;0.77;;;;;;;27.23;40.27;100176.13;5075289;28;20036;-63
2023/05/05 12:59:28;;;;;;;1.15;0.80;;;;;;;26.17;39.06;100162.72;5075015;28;20078;-63
2023/05/05 13:01:55;;;;;;;0.80;0.80;;;;;;;26.55;38.27;100160.41;5075211;28;20040;-62
2023/05/05 13:04:22;;;;;;;1.05;0.90;;;;;;;26.52;38.67;100156.31;5075209;28;20037;-62
2023/05/05 13:07:06;;;;;;;1.17;1.08;;;;;;;26.99;39.61;100156.84;5074944;28;20032;-62
2023/05/05 13:09:34;;;;;;;1.40;0.63;;;;;;;26.76;35.96;100156.47;5075032;28;20063;-63
2023/05/05 13:12:01;;;;;;;1.13;0.70;;;;;;;27.35;35.34;100153.88;5074864;28;20497;-62
2023/05/05 13:14:27;;;;;;;0.90;0.75;;;;;;;27.30;38.63;100157.47;5074978;28;20036;-63
2023/05/05 13:16:52;;;;;;;1.33;0.68;;;;;;;27.65;38.36;100152.78;5074775;28;20101;-63
2023/05/05 13:19:18;;;;;;;0.50;0.50;;;;;;;27.80;36.34;100156.22;5074708;28;20119;-62
2023/05/05 13:21:43;;;;;;;0.82;0.60;;;;;;;27.21;36.44;100145.53;5074965;28;20444;-62
2023/05/05 13:24:09;;;;;;;0.50;0.50;;;;;;;26.99;38.26;100148.66;5074810;28;20052;-62
2023/05/05 13:26:34;;;;;;;0.75;0.70;;;;;;;26.63;38.50;100145.34;5074765;28;20058;-62
2023/05/05 13:28:59;;;;;;;1.60;0.70;;;;;;;26.46;39.42;100145.69;5074589;28;20052;-63
2023/05/05 13:31:25;;;;;;;1.25;0.60;;;;;;;26.52;39.87;100130.91;5074645;28;20071;-64
2023/05/05 13:33:50;;;;;;;1.13;0.70;;;;;;;26.09;39.11;100118.81;5074798;28;20048;-63
2023/05/05 13:36:16;;;;;;;1.70;0.90;;;;;;;25.97;40.87;100128.13;5074615;28;20044;-64
2023/05/05 13:38:41;;;;;;;1.95;0.70;;;;;;;25.75;41.43;100119.44;5074413;28;20066;-64
2023/05/05 13:41:06;;;;;;;1.10;0.70;;;;;;;25.74;41.03;100127.91;5074741;28;20119;-64
2023/05/05 13:43:32;;;;;;;1.25;0.73;;;;;;;25.43;42.35;100122.50;5074708;28;20032;-64
2023/05/05 13:45:57;;;;;;;1.48;0.80;;;;;;;25.25;39.23;100110.25;5074458;28;20064;-64
2023/05/05 13:48:23;;;;;;;0.68;0.65;;;;;;;25.32;39.90;100109.97;5072872;28;20080;-63
2023/05/05 13:50:48;;;;;;;0.75;0.63;;;;;;;25.23;40.21;100111.59;5074446;28;20043;-64
2023/05/05 13:53:14;;;;;;;0.30;0.30;;;;;;;25.38;38.99;100108.88;5072613;28;20039;-63
2023/05/05 13:55:42;;;;;;;3.85;0.90;;;;;;;25.36;39.18;100100.94;5074248;28;20041;-63
2023/05/05 13:58:08;;;;;;;0.50;0.50;;;;;;;25.53;41.72;100097.94;5074352;28;20431;-63
2023/05/05 14:00:34;;;;;;;0.65;0.65;;;;;;;25.22;39.52;100091.69;5074132;28;20226;-62
2023/05/05 14:02:59;;;;;;;0.65;0.65;;;;;;;25.35;39.85;100095.78;5074185;28;20029;-61
2023/05/05 14:05:25;;;;;;;0.50;0.50;;;;;;;25.41;40.82;100086.50;5074064;28;20397;-63
2023/05/05 14:07:51;;;;;;;1.45;0.80;;;;;;;25.46;41.21;100081.03;5073828;28;20032;-62
2023/05/05 14:10:16;;;;;;;0.77;0.60;;;;;;;25.70;40.43;100075.81;5073880;28;20568;-61
2023/05/05 14:12:41;;;;;;;0.70;0.70;;;;;;;25.63;41.09;100073.38;5073940;28;20045;-62
2023/05/05 14:15:07;;;;;;;1.00;0.90;;;;;;;25.49;40.45;100063.31;5073763;28;20041;-62
2023/05/05 14:17:33;;;;;;;1.25;0.95;;;;;;;25.48;40.89;100070.66;5073532;28;20044;-60
2023/05/05 14:19:58;;;;;;;0.77;0.73;;;;;;;25.20;39.72;100076.72;5072859;28;20041;-66
2023/05/05 14:22:23;;;;;;;0.60;0.50;;;;;;;25.13;41.77;100075.09;5073639;28;20033;-66
2023/05/05 14:24:49;;;;;;;0.85;0.80;;;;;;;25.05;42.21;100080.28;5073723;28;20553;-66
2023/05/05 14:27:15;;;;;;;0.70;0.70;;;;;;;24.99;39.95;100068.53;5073249;28;20529;-66
2023/05/05 14:29:40;;;;;;;0.90;0.75;;;;;;;24.88;40.78;100073.16;5073550;28;20040;-67
2023/05/05 14:32:06;;;;;;;0.95;0.70;;;;;;;24.64;42.65;100078.28;5072285;28;20079;-67
2023/05/05 14:34:31;;;;;;;0.95;0.70;;;;;;;24.40;42.49;100082.63;5073532;28;20528;-66
2023/05/05 14:36:56;;;;;;;2.38;1.23;;;;;;;24.43;42.96;100071.19;5073136;28;20098;-65
2023/05/05 14:39:22;;;;;;;2.03;0.75;;;;;;;24.35;42.87;100069.00;5073338;28;20070;-67
2023/05/05 14:41:48;;;;;;;0.80;0.80;;;;;;;24.24;43.51;100070.00;5073369;28;20086;-66
2023/05/05 14:44:13;;;;;;;0.90;0.85;;;;;;;24.03;44.33;100059.06;5073240;28;20521;-66
2023/05/05 14:46:38;;;;;;;1.40;0.80;;;;;;;24.12;44.59;100055.81;5073030;28;20056;-67
2023/05/05 14:49:04;;;;;;;1.13;0.90;;;;;;;24.14;44.26;100076.25;5073029;28;20644;-66
2023/05/05 14:51:30;;;;;;;1.42;0.80;;;;;;;24.10;42.42;100078.66;5072926;28;20051;-67
2023/05/05 14:53:56;;;;;;;0.93;0.70;;;;;;;23.97;42.32;100073.72;5073103;28;20094;-66
2023/05/05 14:56:23;;;;;;;1.33;0.77;;;;;;;23.92;42.85;100081.84;5073037;28;20033;-66
2023/05/05 14:58:49;;;;;;;1.10;0.70;;;;;;;23.79;43.30;100080.44;5072794;28;20029;-66
2023/05/05 15:01:14;;;;;;;1.08;0.70;;;;;;;23.69;42.74;100083.13;5072952;28;20290;-66
2023/05/05 15:03:40;;;;;;;1.55;0.70;;;;;;;23.51;43.69;100086.22;5073082;28;20048;-66
2023/05/05 15:06:07;;;;;;;1.20;0.70;;;;;;;23.45;44.62;100084.56;5072056;28;20498;-66
2023/05/05 15:08:32;;;;;;;1.85;1.30;;;;;;;23.36;44.49;100080.72;5071271;28;20040;-66
2023/05/05 15:10:57;;;;;;;0.85;0.80;;;;;;;23.17;45.45;100085.72;5072622;28;20036;-65
2023/05/05 15:13:23;;;;;;;0.75;0.75;;;;;;;23.07;46.12;100091.88;5073638;28;20076;-67
2023/05/05 15:15:48;;;;;;;0.93;0.77;;;;;;;23.01;46.48;100091.00;5063217;28;20037;-67
2023/05/05 15:18:14;;;;;;;0.70;0.70;;;;;;;22.99;47.46;100100.50;5064099;28;20036;-66
2023/05/05 15:20:39;;;;;;;1.40;1.00;;;;;;;22.79;48.73;100101.13;5052238;28;20090;-66
2023/05/05 15:23:05;;;;;;;1.10;0.85;;;;;;;22.62;51.36;100101.22;5052526;28;20053;-52
2023/05/05 15:25:30;;;;;;;2.00;1.00;;;;;;;22.52;53.84;100116.59;5068865;28;20085;-54
2023/05/05 15:27:57;;;;;;;0.98;0.80;;;;;;;22.14;56.96;100121.03;5075795;28;20085;-52
2023/05/05 15:30:23;;;;;;;1.27;0.73;;;;;;;21.87;61.74;100132.59;5071944;28;20044;-50
2023/05/05 15:32:48;;;;;;;1.55;1.17;;;;;;;21.36;66.52;100145.38;5086914;28;20036;-55
2023/05/05 15:35:14;;;;;;;0.90;0.65;;;;;;;21.20;69.98;100156.19;5092569;28;20405;-55
2023/05/05 15:37:41;;;;;;;0.77;0.60;;;;;;;20.61;75.28;100178.13;5091738;28;20059;-54
2023/05/05 15:40:07;;;;;;;2.35;1.00;;;;;;;19.89;83.52;100197.38;5092561;28;20036;-67
2023/05/05 15:42:32;;;;;;;1.15;0.95;;;;;;;19.29;90.03;100213.72;5092425;28;20028;-66
2023/05/05 15:44:59;;;;;;;2.75;1.48;;;;;;;18.97;94.94;100211.28;5073894;28;20509;-67
2023/05/05 15:47:25;;;;;;;1.48;1.10;;;;;;;18.44;100.00;100233.50;5071903;28;20028;-68
2023/05/05 15:49:50;;;;;;;1.98;1.33;;;;;;;18.09;100.00;100244.03;5072263;28;20043;-68